Time;durP1;ratioP1;P1;durP2;ratioP2;P2;SDS_P1;SDS_P2;PMS_P1;PMS_P2;Temp;Humidity;BMP_temperature;BMP_pressure;BME280_temperature;BME280_humidity;BME280_pressure;Samples;Min_cycle;Max_cycle;Signal;HPM_P1;HPM_P2
2022/07/06 00:00:09;;;;;;;26.65;20.80;;;;;;;19.37;100.00;99067.55;1773207;81;20903;-73
2022/07/06 00:02:36;;;;;;;21.87;19.55;;;;;;;19.34;100.00;99068.20;1828727;78;20826;-74
2022/07/06 00:05:04;;;;;;;22.93;19.80;;;;;;;19.28;100.00;99070.30;1805521;78;20921;-73
2022/07/06 00:07:31;;;;;;;28.42;21.40;;;;;;;19.24;100.00;99067.98;1828264;78;21005;-73
2022/07/06 00:09:58;;;;;;;27.40;21.73;;;;;;;19.20;100.00;99063.50;1828447;78;21856;-73
2022/07/06 00:12:25;;;;;;;25.15;22.48;;;;;;;19.15;100.00;99069.11;1828657;78;20918;-73
2022/07/06 00:14:52;;;;;;;25.50;21.93;;;;;;;19.12;100.00;99068.41;1828804;78;21404;-73
2022/07/06 00:17:20;;;;;;;;;;;;;;;19.09;100.00;99066.34;1831313;78;21001;-72
2022/07/06 00:19:47;;;;;;;28.35;21.40;;;;;;;19.04;100.00;99068.09;1828392;78;20081;-73
2022/07/06 00:22:14;;;;;;;25.82;22.10;;;;;;;19.00;100.00;99068.48;1828273;78;21088;-73
2022/07/06 00:24:41;;;;;;;24.92;22.15;;;;;;;18.99;100.00;99063.39;1828266;78;20949;-72
2022/07/06 00:27:08;;;;;;;25.30;22.50;;;;;;;18.98;100.00;99061.20;1828261;78;21325;-73
2022/07/06 00:29:34;;;;;;;26.45;22.32;;;;;;;18.98;100.00;99061.77;1828585;78;20886;-73
2022/07/06 00:32:01;;;;;;;38.60;24.77;;;;;;;18.95;100.00;99055.05;1828380;78;20902;-73
2022/07/06 00:34:29;;;;;;;30.77;24.07;;;;;;;18.92;100.00;99052.98;1828567;78;21941;-72
2022/07/06 00:36:55;;;;;;;24.98;22.32;;;;;;;18.88;100.00;99053.95;1828509;78;20898;-70
2022/07/06 00:39:28;;;;;;;29.90;25.32;;;;;;;18.85;100.00;99050.74;1828499;78;20906;-71
2022/07/06 00:41:52;;;;;;;31.05;24.12;;;;;;;18.84;100.00;99049.16;1827764;78;21015;-73
2022/07/06 00:44:19;;;;;;;26.45;22.80;;;;;;;18.84;100.00;99042.92;1828451;78;20907;-73
2022/07/06 00:46:46;;;;;;;31.52;24.12;;;;;;;18.83;100.00;99037.23;1828725;78;21770;-71
2022/07/06 00:51:59;;;;;;;31.75;22.32;;;;;;;18.81;100.00;99039.47;1828467;78;20819;-71
2022/07/06 00:54:30;;;;;;;27.37;22.93;;;;;;;18.77;100.00;99037.96;1828429;78;20863;-71
2022/07/06 00:56:56;;;;;;;28.35;22.27;;;;;;;18.75;100.00;99039.38;1823175;78;20926;-71
2022/07/06 00:59:24;;;;;;;28.40;23.27;;;;;;;18.73;100.00;99038.33;1818892;79;21236;-70
2022/07/06 01:01:51;;;;;;;29.50;21.90;;;;;;;18.70;100.00;99033.53;1818652;79;20982;-70
2022/07/06 01:04:18;;;;;;;32.55;23.22;;;;;;;18.66;100.00;99028.48;1818839;79;20864;-71
2022/07/06 01:06:47;;;;;;;29.12;23.65;;;;;;;18.66;100.00;99026.34;1818793;79;20939;-71
2022/07/06 01:09:14;;;;;;;24.10;20.92;;;;;;;18.66;100.00;99016.83;1818413;78;20930;-71
2022/07/06 01:11:42;;;;;;;;;;;;;;;18.65;100.00;99020.11;1821473;79;21508;-71
2022/07/06 01:14:08;;;;;;;27.98;21.27;;;;;;;18.63;100.00;99012.83;1796876;78;20438;-71
2022/07/06 01:16:35;;;;;;;26.33;20.95;;;;;;;18.62;100.00;99012.60;1735860;82;21449;-72
2022/07/06 01:19:03;;;;;;;29.52;22.55;;;;;;;18.63;100.00;99008.19;1818938;79;20891;-73
2022/07/06 01:21:31;;;;;;;27.98;22.20;;;;;;;18.64;100.00;99007.09;1818519;79;21463;-71
2022/07/06 01:23:57;;;;;;;29.55;21.23;;;;;;;18.60;100.00;99008.04;1818767;79;21231;-72
2022/07/06 01:26:24;;;;;;;28.92;21.10;;;;;;;18.61;100.00;99015.06;1818796;79;20903;-72
2022/07/06 01:28:51;;;;;;;22.85;20.23;;;;;;;18.55;100.00;99014.43;1818687;79;20939;-73
2022/07/06 01:31:21;;;;;;;22.60;20.30;;;;;;;18.52;100.00;99018.33;1796275;78;20827;-72
2022/07/06 01:33:55;;;;;;;30.45;22.62;;;;;;;18.47;100.00;99013.05;1818657;79;20863;-72
2022/07/06 01:36:22;;;;;;;30.32;22.50;;;;;;;18.46;100.00;99014.98;1818971;79;21119;-72
2022/07/06 01:38:55;;;;;;;29.23;22.05;;;;;;;18.40;100.00;99016.27;1795593;78;20871;-73
2022/07/06 01:41:21;;;;;;;30.35;20.85;;;;;;;18.36;100.00;99013.94;1819441;78;20994;-71
2022/07/06 01:43:48;;;;;;;27.90;21.05;;;;;;;18.29;100.00;99018.48;1736645;82;20851;-71
2022/07/06 01:46:16;;;;;;;28.23;22.00;;;;;;;18.26;100.00;99016.97;1818889;79;20863;-72
2022/07/06 01:48:43;;;;;;;27.05;22.25;;;;;;;18.25;100.00;99016.17;1736806;82;21532;-72
2022/07/06 01:51:11;;;;;;;24.57;21.97;;;;;;;18.22;100.00;99018.15;1818904;79;20867;-73
2022/07/06 01:53:38;;;;;;;26.60;21.02;;;;;;;18.20;100.00;99014.94;1818623;79;20835;-73
2022/07/06 01:56:07;;;;;;;30.50;22.02;;;;;;;18.17;100.00;99016.38;1724698;82;20988;-72
2022/07/06 01:58:35;;;;;;;22.13;19.35;;;;;;;18.11;100.00;99016.30;1748516;80;20893;-72
2022/07/06 02:01:09;;;;;;;33.50;21.87;;;;;;;18.10;100.00;99020.69;1782700;80;21475;-73
2022/07/06 02:03:37;;;;;;;28.83;21.60;;;;;;;18.07;100.00;99025.39;1762390;81;21393;-72
2022/07/06 02:06:05;;;;;;;27.90;22.73;;;;;;;18.05;100.00;99023.55;1762311;81;20882;-72
2022/07/06 02:08:34;;;;;;;22.85;19.92;;;;;;;18.03;100.00;99023.88;1762083;81;20994;-73
2022/07/06 02:11:03;;;;;;;24.67;18.92;;;;;;;18.01;100.00;99019.32;1762788;81;26284;-71
2022/07/06 02:13:30;;;;;;;26.95;17.92;;;;;;;18.02;100.00;99013.33;1734334;81;22122;-73
2022/07/06 02:15:57;;;;;;;18.57;16.62;;;;;;;18.03;100.00;99009.48;1762228;81;20895;-71
2022/07/06 02:18:24;;;;;;;22.55;17.90;;;;;;;18.07;100.00;99011.25;1762199;81;20926;-72
2022/07/06 02:20:50;;;;;;;23.15;18.50;;;;;;;18.19;100.00;99014.72;1779187;80;21055;-72
2022/07/06 02:23:18;;;;;;;21.40;18.60;;;;;;;18.23;100.00;99014.86;1782721;80;20849;-73
2022/07/06 02:25:45;;;;;;;27.77;17.87;;;;;;;18.26;100.00;99012.89;1762286;81;21317;-72
2022/07/06 02:28:12;;;;;;;21.40;17.60;;;;;;;18.34;100.00;99009.38;1762055;81;20973;-73
2022/07/06 02:30:40;;;;;;;22.82;18.15;;;;;;;18.40;100.00;99008.91;1779215;80;20878;-73
2022/07/06 02:33:07;;;;;;;20.85;17.37;;;;;;;18.49;100.00;99033.92;1782270;80;21579;-72
2022/07/06 02:35:41;;;;;;;;;;;;;;;18.60;100.00;99031.14;1764837;81;20969;-73
2022/07/06 02:38:05;;;;;;;22.95;19.42;;;;;;;18.62;100.00;99028.34;1772439;80;21216;-72
2022/07/06 02:40:32;;;;;;;27.77;20.92;;;;;;;18.69;100.00;99024.33;1776248;80;20971;-74
2022/07/06 02:42:58;;;;;;;31.60;21.33;;;;;;;18.70;100.00;99025.37;1806784;78;20922;-72
2022/07/06 02:45:26;;;;;;;32.55;22.70;;;;;;;18.73;100.00;99049.77;1829330;78;20988;-73
2022/07/06 02:47:56;;;;;;;29.05;19.45;;;;;;;18.79;100.00;99019.42;1828191;78;20961;-73
2022/07/06 02:50:24;;;;;;;21.05;18.85;;;;;;;18.90;100.00;99036.76;1828504;78;21147;-74
2022/07/06 02:52:52;;;;;;;23.18;18.70;;;;;;;18.95;100.00;99026.50;1828205;78;20878;-73
2022/07/06 02:55:18;;;;;;;25.95;18.92;;;;;;;19.07;100.00;99051.69;1828622;78;20850;-73
2022/07/06 02:57:45;;;;;;;23.32;18.40;;;;;;;19.21;100.00;99048.23;1798960;78;20957;-74
2022/07/06 03:00:13;;;;;;;25.08;17.98;;;;;;;19.29;100.00;99050.69;1795891;80;21504;-73
2022/07/06 03:02:40;;;;;;;21.10;16.95;;;;;;;19.43;100.00;99037.69;1795841;80;21222;-73
2022/07/06 03:05:08;;;;;;;27.15;17.85;;;;;;;19.44;100.00;99046.08;1796096;80;21464;-74
2022/07/06 03:07:34;;;;;;;23.18;15.63;;;;;;;19.55;100.00;99051.16;1795834;80;21452;-73
2022/07/06 03:10:05;;;;;;;20.13;16.57;;;;;;;19.71;100.00;99050.91;1795702;80;20910;-77
2022/07/06 03:12:32;;;;;;;21.07;16.02;;;;;;;19.88;100.00;99050.83;1796040;80;20941;-74
2022/07/06 03:15:00;;;;;;;19.75;16.05;;;;;;;19.85;100.00;99059.66;1795672;79;20965;-74
2022/07/06 03:17:28;;;;;;;;;;;;;;;20.02;100.00;99069.67;1798348;80;21369;-74
2022/07/06 03:19:55;;;;;;;20.20;14.70;;;;;;;19.99;100.00;99066.25;1795958;80;20147;-74
2022/07/06 03:22:24;;;;;;;23.00;16.12;;;;;;;20.05;100.00;99061.41;1795701;80;20914;-75
2022/07/06 03:24:51;;;;;;;16.93;15.13;;;;;;;20.13;100.00;99063.28;1796409;80;20985;-73
2022/07/06 03:27:18;;;;;;;17.95;15.88;;;;;;;20.29;100.00;99055.34;1795836;80;21771;-74
2022/07/06 03:29:45;;;;;;;24.77;17.40;;;;;;;20.49;100.00;99061.38;1795771;80;20878;-73
2022/07/06 03:32:12;;;;;;;20.57;14.73;;;;;;;20.64;100.00;99055.92;1796000;80;20961;-73
2022/07/06 03:34:40;;;;;;;23.47;16.25;;;;;;;20.96;100.00;99057.09;1795609;80;21361;-73
2022/07/06 03:37:08;;;;;;;22.82;15.55;;;;;;;21.20;100.00;99056.38;1795841;80;20847;-73
2022/07/06 03:39:35;;;;;;;22.15;15.60;;;;;;;21.39;100.00;99060.00;1777517;79;21514;-74
2022/07/06 03:42:03;;;;;;;21.70;15.55;;;;;;;21.52;100.00;99064.12;1795889;80;20921;-73
2022/07/06 03:44:31;;;;;;;20.23;16.07;;;;;;;21.62;100.00;99067.20;1753916;79;20972;-75
2022/07/06 03:46:58;;;;;;;19.87;15.93;;;;;;;21.54;100.00;99070.84;1793000;80;20901;-73
2022/07/06 03:49:27;;;;;;;20.80;17.07;;;;;;;21.61;100.00;99071.08;1796012;80;20957;-75
2022/07/06 03:51:54;;;;;;;16.82;15.23;;;;;;;21.70;100.00;99070.17;1796139;80;21779;-73
2022/07/06 03:54:22;;;;;;;21.23;15.78;;;;;;;21.70;100.00;99066.86;1795775;80;21524;-75
2022/07/06 03:56:49;;;;;;;24.77;17.42;;;;;;;21.43;100.00;99064.20;1807668;79;20828;-74
2022/07/06 03:59:16;;;;;;;25.12;17.23;;;;;;;21.38;100.00;99064.39;1736649;82;20886;-74
2022/07/06 04:01:43;;;;;;;22.93;17.17;;;;;;;21.33;100.00;99065.97;1818728;79;20946;-71
2022/07/06 04:04:12;;;;;;;28.17;18.95;;;;;;;21.32;100.00;99063.81;1736758;82;21249;-74
2022/07/06 04:06:41;;;;;;;22.37;18.17;;;;;;;21.32;100.00;99072.00;1819052;79;20993;-75
2022/07/06 04:09:10;;;;;;;22.20;19.10;;;;;;;21.31;100.00;99068.23;1818718;79;21434;-75
2022/07/06 04:11:38;;;;;;;36.98;20.55;;;;;;;21.29;100.00;99060.41;1736607;82;20875;-75
2022/07/06 04:14:05;;;;;;;25.92;19.85;;;;;;;21.31;100.00;99055.95;1818763;79;20942;-75
2022/07/06 04:16:35;;;;;;;29.72;19.62;;;;;;;21.29;100.00;99051.39;1818726;79;20978;-72
2022/07/06 04:19:03;;;;;;;26.27;20.17;;;;;;;21.25;100.00;99058.68;1818645;79;20951;-73
2022/07/06 04:21:30;;;;;;;30.40;19.52;;;;;;;21.15;100.00;99063.42;1736641;82;20910;-72
2022/07/06 04:23:57;;;;;;;38.80;20.65;;;;;;;21.10;100.00;99065.56;1818471;79;20910;-72
2022/07/06 04:26:24;;;;;;;23.92;19.55;;;;;;;21.14;100.00;99056.37;1819349;79;20918;-72
2022/07/06 04:28:51;;;;;;;31.80;20.45;;;;;;;21.23;100.00;99061.73;1818986;79;21693;-74
2022/07/06 04:31:19;;;;;;;27.65;20.30;;;;;;;21.25;100.00;99057.31;1795209;79;20896;-72
2022/07/06 04:33:46;;;;;;;;;;;;;;;21.26;100.00;99046.61;1739286;82;20879;-72
2022/07/06 04:36:14;;;;;;;29.95;18.40;;;;;;;21.32;100.00;99041.19;1766822;81;20081;-72
2022/07/06 04:38:43;;;;;;;31.37;19.82;;;;;;;21.33;100.00;99033.22;1736744;82;20922;-74
2022/07/06 04:41:10;;;;;;;28.20;21.37;;;;;;;21.29;100.00;99037.75;1819147;79;21099;-74
2022/07/06 04:43:38;;;;;;;22.85;19.37;;;;;;;21.18;100.00;99047.73;1737090;82;20835;-72
2022/07/06 04:46:05;;;;;;;37.33;20.90;;;;;;;21.16;100.00;99034.98;1819363;79;20883;-72
2022/07/06 04:48:38;;;;;;;44.50;20.80;;;;;;;21.24;100.00;99027.05;1818514;79;21485;-73
2022/07/06 04:51:04;;;;;;;29.92;21.65;;;;;;;21.32;100.00;99022.08;1737011;82;20958;-72
2022/07/06 04:53:31;;;;;;;28.45;21.48;;;;;;;21.28;100.00;99008.30;1818793;79;21252;-73
2022/07/06 04:55:58;;;;;;;28.75;21.17;;;;;;;21.38;100.00;99002.97;1739640;81;20980;-73
2022/07/06 04:58:26;;;;;;;27.62;20.48;;;;;;;21.44;100.00;98996.20;1828866;78;20846;-72
2022/07/06 05:00:53;;;;;;;28.33;21.23;;;;;;;21.32;100.00;98979.20;1828870;78;21448;-72
2022/07/06 05:03:20;;;;;;;24.60;20.02;;;;;;;21.27;100.00;98975.33;1828525;78;21036;-72
2022/07/06 05:05:47;;;;;;;26.52;20.62;;;;;;;21.31;100.00;98983.08;1828545;78;21875;-72
2022/07/06 05:08:15;;;;;;;25.30;20.90;;;;;;;21.27;100.00;98997.16;1828455;78;20891;-72
2022/07/06 05:10:42;;;;;;;30.97;21.77;;;;;;;21.30;100.00;98991.02;1828565;78;20863;-71
2022/07/06 05:13:09;;;;;;;30.73;21.00;;;;;;;21.28;100.00;98981.00;1806517;78;20854;-72
2022/07/06 05:15:38;;;;;;;26.23;20.95;;;;;;;21.35;100.00;98990.01;1825989;78;21341;-72
2022/07/06 05:18:05;;;;;;;27.20;22.40;;;;;;;21.42;100.00;98987.55;1828865;78;21104;-73
2022/07/06 05:20:32;;;;;;;23.10;20.68;;;;;;;21.51;100.00;98984.69;1807209;77;20988;-71
2022/07/06 05:22:59;;;;;;;28.57;21.07;;;;;;;21.65;100.00;98980.27;1830114;78;20902;-72
2022/07/06 05:25:28;;;;;;;22.60;19.20;;;;;;;21.83;100.00;98970.72;1828370;78;21381;-74
2022/07/06 05:27:55;;;;;;;48.73;20.82;;;;;;;21.95;100.00;98961.14;1796342;78;21417;-74
2022/07/06 05:30:22;;;;;;;22.87;18.70;;;;;;;22.13;100.00;98948.00;1834303;78;21831;-73
2022/07/06 05:32:49;;;;;;;21.17;18.57;;;;;;;22.28;100.00;98945.15;1828801;78;21427;-75
2022/07/06 05:35:17;;;;;;;23.25;17.65;;;;;;;22.57;100.00;98936.39;1828450;78;20890;-75
2022/07/06 05:37:44;;;;;;;20.85;17.17;;;;;;;22.78;100.00;98924.64;1828337;78;20961;-73
2022/07/06 05:40:12;;;;;;;21.55;15.93;;;;;;;22.86;100.00;98927.80;1828383;78;20973;-72
2022/07/06 05:42:40;;;;;;;20.55;16.02;;;;;;;23.15;100.00;98925.84;1828613;78;21134;-72
2022/07/06 05:45:08;;;;;;;17.65;15.70;;;;;;;23.28;100.00;98921.85;1828760;78;20864;-75
2022/07/06 05:50:21;;;;;;;21.42;15.65;;;;;;;23.40;100.00;98897.69;1828510;78;21412;-74
2022/07/06 05:53:00;;;;;;;21.87;15.53;;;;;;;23.41;100.00;98904.75;1828706;78;20898;-73
2022/07/06 05:55:28;;;;;;;18.27;15.48;;;;;;;23.47;100.00;98906.62;1828422;78;21079;-74
2022/07/06 05:57:56;;;;;;;19.25;16.57;;;;;;;23.49;100.00;98913.92;1819666;78;21383;-71
2022/07/06 06:00:23;;;;;;;16.17;14.50;;;;;;;23.63;100.00;98914.25;1737171;81;20878;-73
2022/07/06 06:02:52;;;;;;;19.92;15.05;;;;;;;23.80;100.00;98922.69;1819282;79;21398;-72
2022/07/06 06:05:20;;;;;;;17.95;14.68;;;;;;;23.95;100.00;98934.77;1819456;79;20906;-74
2022/07/06 06:07:51;;;;;;;21.25;14.35;;;;;;;24.19;100.00;98937.83;1737172;82;21088;-73
2022/07/06 06:10:18;;;;;;;19.82;15.08;;;;;;;24.57;100.00;98938.44;1793884;78;20890;-73
2022/07/06 06:12:48;;;;;;;16.65;14.33;;;;;;;24.90;100.00;98926.69;1825478;78;20875;-71
2022/07/06 06:15:16;;;;;;;22.82;13.93;;;;;;;25.32;100.00;98928.61;1737190;82;21449;-72
2022/07/06 06:17:43;;;;;;;16.10;13.45;;;;;;;25.83;100.00;98922.71;1819582;79;20890;-71
2022/07/06 06:20:12;;;;;;;17.90;13.80;;;;;;;25.71;100.00;98914.09;1819295;79;21283;-71
2022/07/06 06:22:51;;;;;;;19.12;13.60;;;;;;;25.18;100.00;98916.80;1819166;79;20878;-71
2022/07/06 06:25:33;;;;;;;16.50;12.85;;;;;;;25.06;100.00;98915.58;1736736;82;20918;-71
2022/07/06 06:28:00;;;;;;;16.52;13.15;;;;;;;25.20;100.00;98921.34;1816787;78;20827;-71
2022/07/06 06:30:28;;;;;;;13.80;12.05;;;;;;;25.55;100.00;98921.70;1796965;78;21341;-74
2022/07/06 06:33:16;;;;;;;15.45;11.38;;;;;;;26.22;100.00;98919.14;1738167;82;21063;-74
2022/07/06 06:35:49;;;;;;;12.93;10.88;;;;;;;26.66;93.25;98918.49;1818448;78;20871;-71
2022/07/06 06:38:17;;;;;;;12.45;11.15;;;;;;;26.59;89.90;98922.55;1724908;82;20914;-73
2022/07/06 06:40:44;;;;;;;17.92;12.20;;;;;;;26.40;90.90;98924.06;1819292;79;21360;-71
2022/07/06 06:43:11;;;;;;;13.60;11.65;;;;;;;26.23;92.38;98918.55;1820203;79;21394;-72
2022/07/06 06:45:40;;;;;;;19.75;13.28;;;;;;;26.39;92.40;98920.52;1818546;78;21795;-73
2022/07/06 06:48:07;;;;;;;14.58;11.60;;;;;;;26.26;93.20;98919.17;1819832;79;21449;-72
2022/07/06 06:50:34;;;;;;;26.93;12.60;;;;;;;26.06;96.42;98912.44;1819973;79;21448;-73
2022/07/06 06:53:00;;;;;;;16.57;12.50;;;;;;;26.32;96.88;98910.02;1819854;79;21070;-71
2022/07/06 06:55:27;;;;;;;18.03;12.20;;;;;;;26.37;94.31;98913.22;1745627;78;20882;-73
2022/07/06 06:57:55;;;;;;;20.05;12.10;;;;;;;26.66;93.82;98901.19;1821044;78;21402;-73
2022/07/06 07:00:22;;;;;;;22.37;12.47;;;;;;;26.91;96.28;98906.34;1819364;79;20852;-77
2022/07/06 07:02:48;;;;;;;21.00;11.50;;;;;;;27.20;90.62;98905.26;1819907;79;20827;-74
2022/07/06 07:05:15;;;;;;;17.65;11.70;;;;;;;27.46;87.53;98904.26;1819549;79;20871;-73
2022/07/06 07:07:42;;;;;;;21.80;11.00;;;;;;;27.88;81.89;98909.89;1737613;82;21378;-74
2022/07/06 07:10:09;;;;;;;;;;;;;;;28.14;81.90;98908.81;1821938;79;21731;-74
2022/07/06 07:12:45;;;;;;;24.00;11.78;;;;;;;28.48;80.08;98914.11;1819855;79;20082;-74
2022/07/06 07:15:13;;;;;;;21.00;10.53;;;;;;;28.55;79.05;98914.13;1798729;78;20934;-74
2022/07/06 07:17:40;;;;;;;;;;;;;;;28.35;75.91;98912.27;1822521;79;20871;-73
2022/07/06 07:20:09;;;;;;;14.80;10.65;;;;;;;28.24;79.27;98912.02;1819833;79;20105;-73
2022/07/06 07:22:36;;;;;;;16.52;11.20;;;;;;;28.26;79.21;98917.34;1819870;79;21044;-73
2022/07/06 07:25:05;;;;;;;13.03;10.28;;;;;;;28.45;75.89;98919.59;1819361;79;20844;-72
2022/07/06 07:27:33;;;;;;;14.35;10.08;;;;;;;28.55;73.48;98927.93;1819642;79;20906;-71
2022/07/06 07:30:00;;;;;;;12.88;9.25;;;;;;;28.76;68.85;98934.11;1796642;78;21405;-73
2022/07/06 07:32:27;;;;;;;12.45;9.15;;;;;;;28.65;67.86;98936.05;1825557;78;20903;-72
2022/07/06 07:34:56;;;;;;;15.03;10.13;;;;;;;28.54;68.10;98937.41;1737594;82;21154;-72
2022/07/06 07:37:22;;;;;;;34.98;11.10;;;;;;;28.42;71.93;98938.52;1819751;79;21351;-72
2022/07/06 07:39:49;;;;;;;16.45;9.80;;;;;;;28.41;69.84;98943.81;1820053;79;20883;-72
2022/07/06 07:42:17;;;;;;;17.20;9.77;;;;;;;28.34;67.17;98943.00;1819869;79;21375;-72
2022/07/06 07:44:44;;;;;;;13.72;8.88;;;;;;;28.30;69.38;98940.83;1819599;79;20910;-72
2022/07/06 07:47:10;;;;;;;16.45;10.55;;;;;;;28.42;68.61;98943.25;1819392;79;21227;-71
2022/07/06 07:49:38;;;;;;;16.25;9.65;;;;;;;28.46;70.80;98948.20;1819499;79;21419;-73
2022/07/06 07:52:05;;;;;;;24.90;10.55;;;;;;;28.64;72.55;98945.52;1819269;79;20867;-73
2022/07/06 07:54:32;;;;;;;13.55;10.75;;;;;;;28.82;69.75;98949.09;1819417;79;20831;-74
2022/07/06 07:56:59;;;;;;;14.30;10.85;;;;;;;29.07;66.65;98949.77;1819378;79;21401;-73
2022/07/06 07:59:25;;;;;;;19.93;10.50;;;;;;;29.38;64.92;98952.35;1819368;79;21167;-72
2022/07/06 08:01:53;;;;;;;15.88;9.90;;;;;;;29.53;61.96;98953.14;1819337;79;20887;-73
2022/07/06 08:04:20;;;;;;;18.50;9.37;;;;;;;30.59;61.18;98959.42;1737094;82;21440;-75
2022/07/06 08:06:47;;;;;;;13.70;8.90;;;;;;;30.59;61.18;98959.42;1819632;79;21364;-74
2022/07/06 08:09:14;;;;;;;;;;;;;;;30.79;56.98;98957.72;1797476;79;21405;-75
2022/07/06 08:11:41;;;;;;;13.08;9.33;;;;;;;31.06;57.97;98959.96;1820097;79;21061;-76
2022/07/06 08:14:08;;;;;;;12.37;10.23;;;;;;;31.09;54.18;98960.53;1819529;79;21433;-73
2022/07/06 08:16:35;;;;;;;11.10;8.88;;;;;;;31.35;53.50;98949.45;1819936;79;22848;-75
2022/07/06 08:19:02;;;;;;;;;;;;;;;31.63;53.98;98949.03;1821784;79;20901;-76
2022/07/06 08:21:29;;;;;;;9.53;7.12;;;;;;;31.73;49.67;98953.71;1819841;79;20117;-76
2022/07/06 08:23:56;;;;;;;6.90;6.25;;;;;;;31.83;49.11;98950.81;1819559;79;21136;-75
2022/07/06 08:26:23;;;;;;;13.60;6.47;;;;;;;32.10;48.54;98948.00;1737784;81;20978;-80
2022/07/06 08:28:50;;;;;;;8.48;6.45;;;;;;;32.20;46.16;98952.03;1819675;79;24541;-77
2022/07/06 08:31:17;;;;;;;12.47;6.87;;;;;;;32.24;46.28;98943.06;1737212;82;20906;-79
2022/07/06 08:33:48;;;;;;;8.03;5.92;;;;;;;32.56;44.01;98944.67;1819516;79;20922;-74
2022/07/06 08:36:15;;;;;;;9.43;6.25;;;;;;;32.64;42.15;98940.59;1819498;79;21161;-72
2022/07/06 08:38:42;;;;;;;;;;;;;;;32.47;43.33;98944.36;1821870;79;20863;-75
2022/07/06 08:41:11;;;;;;;;;;;;;;;32.58;43.41;98933.13;1800078;78;20076;-77
2022/07/06 08:43:38;;;;;;;8.75;6.40;;;;;;;32.52;42.25;98931.42;1819219;78;20100;-75
2022/07/06 08:46:05;;;;;;;12.05;6.85;;;;;;;32.12;42.76;98935.28;1819651;79;20875;-75
2022/07/06 08:48:35;;;;;;;8.48;7.03;;;;;;;32.46;43.25;98912.22;1819165;79;21186;-76
2022/07/06 08:51:07;;;;;;;10.55;6.17;;;;;;;32.86;44.56;98927.78;1819448;79;20855;-79
2022/07/06 08:53:34;;;;;;;10.35;6.15;;;;;;;33.67;42.79;98930.47;1819265;79;20816;-80
2022/07/06 08:56:01;;;;;;;6.12;4.90;;;;;;;33.45;41.14;98930.03;1819690;79;20844;-75
2022/07/06 08:58:28;;;;;;;11.55;5.87;;;;;;;33.35;41.87;98929.61;1819095;79;20912;-75
2022/07/06 09:00:55;;;;;;;8.50;5.58;;;;;;;33.69;40.53;98926.66;1796268;78;23159;-74
2022/07/06 09:03:23;;;;;;;9.70;5.42;;;;;;;34.12;40.49;98925.06;1818969;79;20891;-75
2022/07/06 09:05:51;;;;;;;9.98;5.75;;;;;;;34.36;37.89;98924.38;1819369;79;20852;-73
2022/07/06 09:08:18;;;;;;;7.33;5.42;;;;;;;33.87;38.57;98918.58;1796826;78;20867;-74
2022/07/06 09:10:45;;;;;;;8.68;5.55;;;;;;;32.81;39.49;98920.70;1730157;82;20863;-73
2022/07/06 09:13:13;;;;;;;16.40;7.00;;;;;;;32.52;40.37;98910.59;1767544;80;21887;-74
2022/07/06 09:15:42;;;;;;;7.60;5.72;;;;;;;32.38;41.64;98909.37;1819324;79;20887;-76
2022/07/06 09:18:09;;;;;;;7.87;5.55;;;;;;;32.11;40.93;98914.26;1819255;79;24735;-76
2022/07/06 09:20:36;;;;;;;24.27;7.00;;;;;;;31.96;40.94;98910.09;1819420;79;20894;-72
2022/07/06 09:23:06;;;;;;;7.35;6.42;;;;;;;31.88;41.07;98906.58;1819232;79;20879;-72
2022/07/06 09:25:34;;;;;;;9.60;6.40;;;;;;;31.75;41.65;98902.16;1818949;79;21182;-74
2022/07/06 09:28:01;;;;;;;8.98;5.53;;;;;;;31.79;42.20;98909.05;1819536;79;20852;-75
2022/07/06 09:30:29;;;;;;;8.70;6.37;;;;;;;31.25;42.45;98908.75;1819233;79;20875;-72
2022/07/06 09:32:57;;;;;;;8.85;6.03;;;;;;;31.23;42.33;98902.22;1819691;79;20915;-72
2022/07/06 09:35:32;;;;;;;9.98;6.28;;;;;;;30.90;41.06;98899.52;1819388;79;20867;-71
2022/07/06 09:38:06;;;;;;;7.87;6.17;;;;;;;30.89;41.40;98890.43;1796505;78;21399;-74
2022/07/06 09:40:37;;;;;;;10.50;6.80;;;;;;;30.90;42.23;98897.53;1808528;78;20931;-74
2022/07/06 09:43:21;;;;;;;11.03;5.75;;;;;;;30.95;42.15;98892.16;1819205;78;21441;-76
2022/07/06 09:45:54;;;;;;;10.28;6.80;;;;;;;31.24;41.69;98891.94;1819221;79;20859;-76
2022/07/06 09:48:26;;;;;;;11.68;6.67;;;;;;;31.40;41.80;98886.05;1819272;79;20915;-76
2022/07/06 09:50:58;;;;;;;15.78;6.33;;;;;;;31.23;41.94;98889.74;1819621;79;21366;-73
2022/07/06 09:53:26;;;;;;;10.03;5.92;;;;;;;31.04;42.46;98880.59;1819616;79;20864;-76
2022/07/06 09:55:58;;;;;;;21.45;6.60;;;;;;;30.86;42.91;98884.30;1819082;79;20840;-74
2022/07/06 09:58:24;;;;;;;12.13;6.78;;;;;;;30.75;44.04;98893.27;1795288;78;20870;-72
2022/07/06 10:00:52;;;;;;;6.58;5.87;;;;;;;30.59;42.98;98888.20;1819619;78;20911;-73
2022/07/06 10:03:19;;;;;;;13.08;6.35;;;;;;;30.67;43.29;98894.48;1819259;79;21075;-75
2022/07/06 10:05:47;;;;;;;14.38;5.72;;;;;;;30.93;43.54;98886.23;1819334;79;20924;-76
2022/07/06 10:08:14;;;;;;;9.35;5.85;;;;;;;31.10;43.27;98884.52;1819412;79;20824;-77
2022/07/06 10:10:42;;;;;;;9.83;6.85;;;;;;;31.18;41.99;98881.87;1819026;79;20935;-78
2022/07/06 10:13:09;;;;;;;;;;;;;;;31.22;43.64;98877.70;1822122;79;20871;-78
2022/07/06 10:15:39;;;;;;;14.20;6.42;;;;;;;31.24;42.14;98880.25;1819138;79;20089;-73
2022/07/06 10:18:08;;;;;;;8.33;5.75;;;;;;;31.08;42.87;98875.83;1819213;79;21393;-76
2022/07/06 10:20:37;;;;;;;12.30;5.72;;;;;;;31.08;43.38;98874.44;1736969;82;20879;-73
2022/07/06 10:23:08;;;;;;;12.78;6.25;;;;;;;31.20;43.19;98871.16;1792590;78;21468;-77
2022/07/06 10:25:37;;;;;;;17.23;10.65;;;;;;;31.49;43.95;98864.78;1819268;79;21399;-74
2022/07/06 10:28:13;;;;;;;15.18;9.50;;;;;;;31.77;44.10;98876.16;1819565;79;21079;-76
2022/07/06 10:30:34;;;;;;;18.27;9.20;;;;;;;32.09;43.56;98870.86;1820438;78;20871;-77
2022/07/06 10:33:01;;;;;;;22.52;6.55;;;;;;;31.96;44.18;98874.00;1819021;79;20908;-77
2022/07/06 10:35:28;;;;;;;;;;;;;;;31.66;45.68;98863.63;1821728;79;20906;-78
2022/07/06 10:38:07;;;;;;;34.03;27.65;;;;;;;31.65;45.86;98856.49;1793145;79;20426;-75
2022/07/06 10:43:47;;;;;;;12.63;6.92;;;;;;;30.94;47.36;98853.97;1819319;79;20887;-75
2022/07/06 10:46:20;;;;;;;8.00;5.65;;;;;;;30.52;48.42;98869.64;1818862;78;20920;-74
2022/07/06 10:48:47;;;;;;;15.85;5.90;;;;;;;29.99;52.47;98891.44;1819276;79;20859;-69
2022/07/06 10:51:24;;;;;;;;;;;;;;;29.03;64.48;98876.53;1739636;82;21472;-68
2022/07/06 10:53:58;;;;;;;13.68;6.60;;;;;;;28.12;81.58;98856.00;1767724;81;21123;-68
2022/07/06 10:56:44;;;;;;;12.68;6.12;;;;;;;27.95;76.63;98847.06;1736882;82;20983;-68
2022/07/06 10:59:21;;;;;;;8.10;6.65;;;;;;;27.97;92.10;98834.47;1819354;79;20835;-69
2022/07/06 11:02:15;;;;;;;11.85;8.23;;;;;;;28.09;89.17;98827.82;1819252;79;21434;-69
2022/07/06 11:04:45;;;;;;;8.15;7.12;;;;;;;28.38;95.59;98815.48;1737148;82;20894;-70
2022/07/06 11:07:18;;;;;;;31.42;24.92;;;;;;;29.07;79.13;98815.77;1819198;79;21395;-71
2022/07/06 11:09:59;;;;;;;19.75;15.13;;;;;;;29.69;74.34;98816.67;1737198;82;20839;-71
2022/07/06 11:12:26;;;;;;;11.95;6.72;;;;;;;30.10;60.21;98814.69;1819151;79;21407;-69
2022/07/06 11:14:54;;;;;;;7.60;5.83;;;;;;;30.36;61.47;98804.92;1819696;79;20895;-69
2022/07/06 11:17:22;;;;;;;8.58;6.35;;;;;;;30.61;55.87;98800.58;1819115;79;21407;-69
2022/07/06 11:19:56;;;;;;;7.12;5.40;;;;;;;30.82;59.41;98805.96;1737117;82;21195;-73
2022/07/06 11:22:26;;;;;;;12.30;5.95;;;;;;;31.24;54.44;98804.02;1819437;79;20890;-69
2022/07/06 11:24:53;;;;;;;8.85;5.90;;;;;;;31.51;50.18;98801.38;1819051;79;21434;-69
2022/07/06 11:27:21;;;;;;;9.33;5.42;;;;;;;31.78;46.95;98790.97;1737367;82;20911;-69
2022/07/06 11:29:47;;;;;;;5.25;4.85;;;;;;;32.32;51.87;98794.44;1772216;78;20894;-70
2022/07/06 11:32:14;;;;;;;7.95;5.55;;;;;;;32.52;42.60;98795.33;1821127;78;21932;-73